createdAt,value
2023-08-17T00:00:21.226Z,96389.25
2023-08-17T00:01:52.944Z,96390.34
2023-08-17T00:03:24.801Z,96388.09
2023-08-17T00:04:56.490Z,96387.16
2023-08-17T00:06:29.594Z,96395.38
2023-08-17T00:08:01.256Z,96397.31
2023-08-17T00:09:33.199Z,96396.41
2023-08-17T00:11:04.820Z,96395.88
2023-08-17T00:12:36.466Z,96397.19
2023-08-17T00:14:08.132Z,96390.00
2023-08-17T00:15:40.196Z,96385.63
2023-08-17T00:17:11.916Z,96383.53
2023-08-17T00:18:43.551Z,96383.53
2023-08-17T00:20:15.393Z,96377.91
2023-08-17T00:21:48.411Z,96380.84
2023-08-17T00:23:21.792Z,96382.25
2023-08-17T00:24:53.504Z,96379.63
2023-08-17T00:26:26.019Z,96376.69
2023-08-17T00:27:57.846Z,96379.38
2023-08-17T00:29:29.559Z,96374.78
2023-08-17T00:31:01.228Z,96378.91
2023-08-17T00:32:32.906Z,96375.53
2023-08-17T00:34:04.794Z,96375.38
2023-08-17T00:35:36.423Z,96372.00
2023-08-17T00:37:09.671Z,96373.78
2023-08-17T00:38:43.964Z,96370.38
2023-08-17T00:40:15.777Z,96376.91
2023-08-17T00:41:47.570Z,96369.28
2023-08-17T00:43:19.215Z,96364.59
2023-08-17T00:44:50.839Z,96374.50
2023-08-17T00:46:24.168Z,96368.50
2023-08-17T00:47:56.321Z,96377.38
2023-08-17T00:49:28.253Z,96375.50
2023-08-17T00:50:59.885Z,96369.97
2023-08-17T00:52:33.702Z,96379.81
2023-08-17T00:54:05.833Z,96380.31
2023-08-17T00:55:37.519Z,96379.00
2023-08-17T00:57:09.751Z,96378.50
2023-08-17T00:58:41.639Z,96381.72
2023-08-17T01:00:15.231Z,96378.97
2023-08-17T01:01:49.024Z,96372.81
2023-08-17T01:03:20.767Z,96375.59
2023-08-17T01:04:52.873Z,96373.59
2023-08-17T01:06:24.583Z,96378.34
2023-08-17T01:07:57.782Z,96378.75
2023-08-17T01:09:29.447Z,96373.94
2023-08-17T01:11:06.343Z,96381.47
2023-08-17T01:12:42.600Z,96377.97
2023-08-17T01:14:16.895Z,96376.66
2023-08-17T01:15:51.370Z,96375.91
2023-08-17T01:17:25.646Z,96380.66
2023-08-17T01:18:58.970Z,96379.53
2023-08-17T01:20:30.711Z,96374.63
2023-08-17T01:22:04.781Z,96372.38
2023-08-17T01:23:37.805Z,96377.53
2023-08-17T01:25:09.736Z,96377.34
2023-08-17T01:26:41.420Z,96373.50
2023-08-17T01:28:13.106Z,96375.22
2023-08-17T01:29:44.803Z,96379.78
2023-08-17T01:31:21.040Z,96382.59
2023-08-17T01:32:59.268Z,96368.56
2023-08-17T01:34:30.950Z,96379.97
2023-08-17T01:36:05.965Z,96384.59
2023-08-17T01:37:37.584Z,96382.28
2023-08-17T01:39:13.564Z,96384.84
2023-08-17T01:40:46.010Z,96388.69
2023-08-17T01:42:17.665Z,96400.19
2023-08-17T01:43:49.350Z,96392.38
2023-08-17T01:45:21.022Z,96398.16
2023-08-17T01:46:52.753Z,96392.00
2023-08-17T01:48:24.448Z,96397.75
2023-08-17T01:50:00.580Z,96399.56
2023-08-17T01:51:32.252Z,96398.16
2023-08-17T01:53:04.263Z,96394.38
2023-08-17T01:54:37.351Z,96390.59
2023-08-17T01:56:09.453Z,96381.66
2023-08-17T01:57:42.332Z,96383.72
2023-08-17T01:59:14.226Z,96385.91
2023-08-17T02:00:45.914Z,96385.19
2023-08-17T02:02:18.357Z,96386.13
2023-08-17T02:05:21.843Z,96382.69
2023-08-17T02:06:53.592Z,96384.28
2023-08-17T02:08:25.256Z,96390.88
2023-08-17T02:09:58.313Z,96382.19
2023-08-17T02:11:29.967Z,96389.53
2023-08-17T02:13:12.411Z,96381.75
2023-08-17T02:14:49.483Z,96379.63
2023-08-17T02:16:21.186Z,96380.00
2023-08-17T02:17:53.011Z,96379.22
2023-08-17T02:19:24.731Z,96380.66
2023-08-17T02:20:56.531Z,96381.00
2023-08-17T02:22:31.160Z,96384.63
2023-08-17T02:24:02.841Z,96378.91
2023-08-17T02:25:38.501Z,96379.34
2023-08-17T02:27:10.376Z,96378.41
2023-08-17T02:28:42.066Z,96372.72
2023-08-17T02:30:14.698Z,96383.97
2023-08-17T02:31:47.573Z,96380.53
2023-08-17T02:33:19.330Z,96385.19
2023-08-17T02:34:51.054Z,96383.59
2023-08-17T02:36:22.800Z,96379.19
2023-08-17T02:37:54.671Z,96375.19
2023-08-17T02:39:26.938Z,96376.81
2023-08-17T02:40:59.939Z,96369.78
2023-08-17T02:42:31.640Z,96370.16
2023-08-17T02:44:03.592Z,96367.06
2023-08-17T02:45:35.275Z,96372.88
2023-08-17T02:47:07.055Z,96374.41
2023-08-17T02:48:38.699Z,96369.78
2023-08-17T02:50:10.965Z,96368.69
2023-08-17T02:51:42.597Z,96377.97
2023-08-17T02:53:14.238Z,96380.47
2023-08-17T02:54:45.950Z,96388.19
2023-08-17T02:56:18.972Z,96392.63
2023-08-17T02:57:50.633Z,96389.28
2023-08-17T02:59:22.464Z,96386.13
2023-08-17T03:00:54.847Z,96385.63
2023-08-17T03:02:26.611Z,96384.47
2023-08-17T03:03:58.296Z,96382.91
2023-08-17T03:05:30.014Z,96384.41
2023-08-17T03:07:01.866Z,96382.88
2023-08-17T03:08:33.477Z,96378.13
2023-08-17T03:10:06.076Z,96375.94
2023-08-17T03:11:39.075Z,96382.22
2023-08-17T03:13:10.854Z,96380.09
2023-08-17T03:14:42.459Z,96371.13
2023-08-17T03:16:14.161Z,96370.25
2023-08-17T03:17:45.938Z,96377.81
2023-08-17T03:19:18.622Z,96368.59
2023-08-17T03:20:50.385Z,96371.66
2023-08-17T03:22:22.113Z,96366.13
2023-08-17T03:23:53.855Z,96369.69
2023-08-17T03:25:25.576Z,96364.38
2023-08-17T03:26:58.570Z,96367.09
2023-08-17T03:28:30.288Z,96366.25
2023-08-17T03:30:01.975Z,96362.63
2023-08-17T03:31:33.619Z,96360.44
2023-08-17T03:33:05.578Z,96366.91
2023-08-17T03:34:37.236Z,96368.44
2023-08-17T03:36:09.231Z,96362.88
2023-08-17T03:37:40.897Z,96370.53
2023-08-17T03:39:12.627Z,96369.84
2023-08-17T03:40:44.301Z,96370.94
2023-08-17T03:42:17.325Z,96372.44
2023-08-17T03:43:49.053Z,96371.31
2023-08-17T03:45:20.715Z,96365.88
2023-08-17T03:46:52.459Z,96363.97
2023-08-17T03:48:24.104Z,96368.56
2023-08-17T03:49:56.071Z,96372.72
2023-08-17T03:51:27.861Z,96378.84
2023-08-17T03:52:59.538Z,96383.19
2023-08-17T03:54:31.166Z,96375.91
2023-08-17T03:56:03.253Z,96374.50
2023-08-17T03:57:39.071Z,96383.44
2023-08-17T03:59:11.295Z,96384.84
2023-08-17T04:00:43.449Z,96380.56
2023-08-17T04:02:15.109Z,96387.13
2023-08-17T04:03:46.908Z,96380.19
2023-08-17T04:05:18.995Z,96377.13
2023-08-17T04:06:50.798Z,96385.66
2023-08-17T04:08:22.604Z,96389.53
2023-08-17T04:09:54.403Z,96380.56
2023-08-17T04:11:26.036Z,96384.88
2023-08-17T04:12:59.084Z,96381.59
2023-08-17T04:14:30.753Z,96379.03
2023-08-17T04:16:02.399Z,96390.19
2023-08-17T04:17:34.240Z,96379.69
2023-08-17T04:19:06.134Z,96380.00
2023-08-17T04:20:37.868Z,96389.56
2023-08-17T04:22:09.665Z,96385.69
2023-08-17T04:23:41.281Z,96386.00
2023-08-17T04:25:13.857Z,96382.50
2023-08-17T04:26:45.524Z,96380.66
2023-08-17T04:28:18.558Z,96387.53
2023-08-17T04:29:50.209Z,96387.94
2023-08-17T04:31:21.951Z,96391.47
2023-08-17T04:32:53.988Z,96380.38
2023-08-17T04:34:25.991Z,96381.16
2023-08-17T04:35:57.692Z,96382.28
2023-08-17T04:37:29.509Z,96386.44
2023-08-17T04:39:01.233Z,96384.47
2023-08-17T04:40:33.224Z,96389.00
2023-08-17T04:42:05.414Z,96392.09
2023-08-17T04:43:38.401Z,96386.63
2023-08-17T04:45:10.323Z,96395.22
2023-08-17T04:46:42.012Z,96386.16
2023-08-17T04:48:13.709Z,96392.00
2023-08-17T04:49:45.354Z,96385.81
2023-08-17T04:51:17.142Z,96388.03
2023-08-17T04:52:48.814Z,96391.09
2023-08-17T04:54:20.441Z,96391.59
2023-08-17T04:55:52.376Z,96395.88
2023-08-17T04:57:24.375Z,96393.53
2023-08-17T04:58:57.625Z,96384.28
2023-08-17T05:00:29.706Z,96391.19
2023-08-17T05:02:01.344Z,96392.69
2023-08-17T05:03:34.012Z,96396.97
2023-08-17T05:05:11.125Z,96394.56
2023-08-17T05:06:43.739Z,96399.50
2023-08-17T05:08:15.420Z,96397.97
2023-08-17T05:09:47.167Z,96391.75
2023-08-17T05:11:18.929Z,96398.25
2023-08-17T05:12:50.656Z,96396.44
2023-08-17T05:14:23.694Z,96394.47
2023-08-17T05:15:55.369Z,96399.50
2023-08-17T05:17:27.362Z,96393.72
2023-08-17T05:19:00.575Z,96397.97
2023-08-17T05:20:34.297Z,96393.69
2023-08-17T05:22:06.670Z,96400.63
2023-08-17T05:23:38.329Z,96410.59
2023-08-17T05:25:10.254Z,96404.09
2023-08-17T05:26:41.963Z,96412.09
2023-08-17T05:28:13.589Z,96406.91
2023-08-17T05:29:46.560Z,96410.69
2023-08-17T05:31:18.247Z,96415.25
2023-08-17T05:32:49.996Z,96422.19
2023-08-17T05:34:21.694Z,96410.72
2023-08-17T05:35:55.004Z,96415.38
2023-08-17T05:37:26.890Z,96417.75
2023-08-17T05:38:58.728Z,96418.84
2023-08-17T05:40:31.174Z,96422.56
2023-08-17T05:42:03.081Z,96418.28
2023-08-17T05:43:34.699Z,96423.28
2023-08-17T05:45:09.204Z,96419.75
2023-08-17T05:46:40.866Z,96415.03
2023-08-17T05:48:12.578Z,96419.22
2023-08-17T05:49:44.215Z,96413.00
2023-08-17T05:51:15.852Z,96422.56
2023-08-17T05:52:50.053Z,96413.66
2023-08-17T05:54:21.683Z,96420.97
2023-08-17T05:55:56.442Z,96416.69
2023-08-17T05:57:28.319Z,96420.88
2023-08-17T05:59:00.315Z,96418.56
2023-08-17T06:00:33.386Z,96418.16
2023-08-17T06:02:05.376Z,96422.41
2023-08-17T06:03:37.219Z,96427.41
2023-08-17T06:05:10.393Z,96422.34
2023-08-17T06:06:42.087Z,96418.09
2023-08-17T06:08:13.817Z,96430.03
2023-08-17T06:09:45.439Z,96433.50
2023-08-17T06:11:17.088Z,96423.94
2023-08-17T06:12:48.732Z,96424.28
2023-08-17T06:14:20.433Z,96429.66
2023-08-17T06:15:53.504Z,96426.22
2023-08-17T06:17:25.394Z,96424.78
2023-08-17T06:18:57.381Z,96426.00
2023-08-17T06:20:29.091Z,96426.75
2023-08-17T06:22:00.724Z,96430.28
2023-08-17T06:23:32.343Z,96431.47
2023-08-17T06:25:06.093Z,96425.59
2023-08-17T06:26:37.734Z,96427.47
2023-08-17T06:28:09.399Z,96429.34
2023-08-17T06:29:41.040Z,96430.97
2023-08-17T06:31:16.921Z,96424.66
2023-08-17T06:32:48.719Z,96423.88
2023-08-17T06:34:20.418Z,96434.03
2023-08-17T06:35:52.156Z,96430.97
2023-08-17T06:37:23.819Z,96429.00
2023-08-17T06:38:55.458Z,96432.88
2023-08-17T06:40:27.259Z,96433.13
2023-08-17T06:41:58.873Z,96429.25
2023-08-17T06:43:33.390Z,96430.78
2023-08-17T06:45:06.497Z,96427.66
2023-08-17T06:46:39.526Z,96431.91
2023-08-17T06:48:11.263Z,96437.63
2023-08-17T06:49:43.362Z,96438.31
2023-08-17T06:51:15.020Z,96433.59
2023-08-17T06:52:46.696Z,96437.81
2023-08-17T06:54:18.351Z,96431.88
2023-08-17T06:55:50.041Z,96441.19
2023-08-17T06:57:22.958Z,96443.38
2023-08-17T06:58:54.618Z,96438.28
2023-08-17T07:00:26.379Z,96435.56
2023-08-17T07:01:59.998Z,96436.63
2023-08-17T07:03:31.812Z,96434.69
2023-08-17T07:05:06.582Z,96431.53
2023-08-17T07:06:38.258Z,96432.19
2023-08-17T07:08:12.499Z,96435.31
2023-08-17T07:09:44.213Z,96431.41
2023-08-17T07:11:15.827Z,96435.94
2023-08-17T07:12:47.872Z,96430.06
2023-08-17T07:14:21.823Z,96435.75
2023-08-17T07:15:55.128Z,96435.75
2023-08-17T07:17:28.603Z,96440.22
2023-08-17T07:19:00.541Z,96440.78
2023-08-17T07:20:35.385Z,96434.88
2023-08-17T07:22:10.150Z,96439.88
2023-08-17T07:23:46.002Z,96446.16
2023-08-17T07:25:17.831Z,96440.66
2023-08-17T07:26:49.550Z,96446.22
2023-08-17T07:28:21.328Z,96441.75
2023-08-17T07:29:55.498Z,96435.22
2023-08-17T07:31:27.889Z,96437.09
2023-08-17T07:33:00.935Z,96439.06
2023-08-17T07:34:32.594Z,96448.31
2023-08-17T07:36:05.634Z,96441.63
2023-08-17T07:37:37.380Z,96442.66
2023-08-17T07:39:09.304Z,96442.09
2023-08-17T07:40:40.999Z,96445.66
2023-08-17T07:42:12.682Z,96442.31
2023-08-17T07:43:44.506Z,96447.41
2023-08-17T07:45:16.687Z,96440.53
2023-08-17T07:46:48.335Z,96444.19
2023-08-17T07:48:21.740Z,96442.25
2023-08-17T07:49:53.454Z,96447.59
2023-08-17T07:51:25.139Z,96444.53
2023-08-17T07:52:56.816Z,96446.69
2023-08-17T07:54:28.898Z,96447.31
2023-08-17T07:56:00.542Z,96443.53
2023-08-17T07:57:32.553Z,96438.03
2023-08-17T07:59:04.684Z,96442.78
2023-08-17T08:00:36.437Z,96448.03
2023-08-17T08:02:08.101Z,96445.38
2023-08-17T08:03:41.143Z,96444.72
2023-08-17T08:05:15.195Z,96443.84
2023-08-17T08:06:47.163Z,96446.69
2023-08-17T08:08:18.853Z,96452.38
2023-08-17T08:09:50.510Z,96450.84
2023-08-17T08:11:22.822Z,96449.19
2023-08-17T08:12:54.656Z,96455.81
2023-08-17T08:14:26.449Z,96453.66
2023-08-17T08:15:59.429Z,96446.94
2023-08-17T08:17:31.566Z,96445.16
2023-08-17T08:19:05.177Z,96445.38
2023-08-17T08:20:37.021Z,96446.53
2023-08-17T08:22:08.720Z,96448.16
2023-08-17T08:23:40.432Z,96447.50
2023-08-17T08:25:12.232Z,96446.63
2023-08-17T08:26:43.917Z,96454.44
2023-08-17T08:28:15.827Z,96448.28
2023-08-17T08:29:47.750Z,96447.31
2023-08-17T08:31:19.553Z,96453.16
2023-08-17T08:32:51.258Z,96452.16
2023-08-17T08:34:24.421Z,96452.16
2023-08-17T08:35:56.085Z,96456.63
2023-08-17T08:37:30.521Z,96450.81
2023-08-17T08:39:02.321Z,96453.69
2023-08-17T08:40:34.021Z,96454.78
2023-08-17T08:42:05.779Z,96449.44
2023-08-17T08:43:37.537Z,96452.59
2023-08-17T08:45:10.048Z,96452.31
2023-08-17T08:46:43.164Z,96455.97
2023-08-17T08:48:15.046Z,96455.88
2023-08-17T08:49:51.538Z,96452.69
2023-08-17T08:51:26.250Z,96450.53
2023-08-17T08:52:59.775Z,96455.41
2023-08-17T08:54:31.529Z,96459.75
2023-08-17T08:56:03.392Z,96453.34
2023-08-17T08:57:35.160Z,96456.41
2023-08-17T08:59:07.009Z,96450.31
2023-08-17T09:00:38.871Z,96448.13
2023-08-17T09:02:13.645Z,96449.94
2023-08-17T09:03:45.867Z,96447.91
2023-08-17T09:05:19.333Z,96446.31
2023-08-17T09:06:51.137Z,96438.97
2023-08-17T09:08:26.535Z,96442.56
2023-08-17T09:09:58.231Z,96452.22
2023-08-17T09:11:33.315Z,96447.53
2023-08-17T09:13:05.010Z,96445.13
2023-08-17T09:14:38.259Z,96448.91
2023-08-17T09:16:12.464Z,96445.44
2023-08-17T09:17:44.429Z,96445.88
2023-08-17T09:19:16.228Z,96438.81
2023-08-17T09:20:49.691Z,96444.31
2023-08-17T09:22:25.404Z,96448.09
2023-08-17T09:24:00.536Z,96451.06
2023-08-17T09:25:32.926Z,96449.09
2023-08-17T09:27:10.840Z,96446.25
2023-08-17T09:28:42.735Z,96447.97
2023-08-17T09:31:50.830Z,96456.91
2023-08-17T09:33:22.842Z,96451.16
2023-08-17T09:34:54.520Z,96443.81
2023-08-17T09:36:27.609Z,96433.59
2023-08-17T09:37:59.460Z,96444.69
2023-08-17T09:39:31.125Z,96441.00
2023-08-17T09:41:03.122Z,96448.28
2023-08-17T09:42:35.762Z,96440.59
2023-08-17T09:44:07.778Z,96444.69
2023-08-17T09:45:40.044Z,96446.41
2023-08-17T09:47:11.698Z,96444.63
2023-08-17T09:48:44.657Z,96450.00
2023-08-17T09:50:16.506Z,96444.53
2023-08-17T09:51:49.670Z,96446.63
2023-08-17T09:53:21.376Z,96442.13
2023-08-17T09:54:53.411Z,96450.28
2023-08-17T09:56:25.131Z,96437.88
2023-08-17T09:57:56.838Z,96443.38
2023-08-17T09:59:28.570Z,96435.81
2023-08-17T10:01:00.314Z,96444.66
2023-08-17T10:02:32.065Z,96443.66
2023-08-17T10:04:04.089Z,96437.47
2023-08-17T10:05:38.286Z,96429.81
2023-08-17T10:07:11.280Z,96440.28
2023-08-17T10:08:45.138Z,96435.22
2023-08-17T10:10:17.808Z,96438.53
2023-08-17T10:11:49.476Z,96434.50
2023-08-17T10:13:25.030Z,96438.78
2023-08-17T10:14:59.071Z,96440.63
2023-08-17T10:16:34.626Z,96435.22
2023-08-17T10:18:15.651Z,96434.16
2023-08-17T10:19:53.197Z,96429.78
2023-08-17T10:21:28.549Z,96439.34
2023-08-17T10:23:06.318Z,96433.44
2023-08-17T10:24:39.435Z,96437.09
2023-08-17T10:26:11.354Z,96428.38
2023-08-17T10:27:43.152Z,96434.91
2023-08-17T10:29:17.432Z,96439.91
2023-08-17T10:30:49.550Z,96439.56
2023-08-17T10:32:22.816Z,96442.59
2023-08-17T10:33:58.279Z,96434.00
2023-08-17T10:35:30.096Z,96434.88
2023-08-17T10:37:01.776Z,96436.25
2023-08-17T10:38:34.847Z,96432.38
2023-08-17T10:40:07.777Z,96432.53
2023-08-17T10:41:47.432Z,96425.16
2023-08-17T10:44:54.807Z,96429.94
2023-08-17T10:46:35.555Z,96419.06
2023-08-17T10:48:27.067Z,96419.41
2023-08-17T10:49:59.440Z,96418.81
2023-08-17T10:51:31.092Z,96423.34
2023-08-17T10:53:05.215Z,96419.22
2023-08-17T10:54:39.232Z,96416.81
2023-08-17T10:56:15.008Z,96419.25
2023-08-17T10:57:46.643Z,96404.56
2023-08-17T10:59:25.971Z,96410.03
2023-08-17T11:00:58.040Z,96407.00
2023-08-17T11:02:35.606Z,96414.63
2023-08-17T11:04:12.443Z,96414.50
2023-08-17T11:05:45.270Z,96405.84
2023-08-17T11:07:17.609Z,96406.13
2023-08-17T11:08:53.068Z,96405.38
2023-08-17T11:10:35.884Z,96405.84
2023-08-17T11:12:07.642Z,96403.50
2023-08-17T11:13:39.956Z,96407.50
2023-08-17T11:15:11.687Z,96406.28
2023-08-17T11:16:43.447Z,96402.31
2023-08-17T11:18:15.194Z,96403.59
2023-08-17T11:19:46.839Z,96398.13
2023-08-17T11:21:20.117Z,96397.78
2023-08-17T11:22:52.345Z,96405.81
2023-08-17T11:24:29.361Z,96401.06
2023-08-17T11:26:02.613Z,96400.03
2023-08-17T11:27:38.952Z,96403.56
2023-08-17T11:29:11.101Z,96394.09
2023-08-17T11:32:19.399Z,96391.25
2023-08-17T11:35:27.086Z,96396.69
2023-08-17T11:36:58.915Z,96386.56
2023-08-17T11:38:31.231Z,96389.81
2023-08-17T11:40:03.288Z,96397.50
2023-08-17T11:41:36.375Z,96385.75
2023-08-17T11:43:09.413Z,96389.06
2023-08-17T11:44:41.639Z,96392.53
2023-08-17T11:46:16.084Z,96392.09
2023-08-17T11:47:48.057Z,96396.16
2023-08-17T11:49:19.729Z,96391.06
2023-08-17T11:50:51.876Z,96391.72
2023-08-17T11:52:23.509Z,96394.06
2023-08-17T11:53:55.232Z,96395.16
2023-08-17T11:55:27.284Z,96391.19
2023-08-17T11:57:05.352Z,96388.38
2023-08-17T11:58:40.816Z,96391.31
2023-08-17T12:00:18.585Z,96395.66
2023-08-17T12:01:50.458Z,96397.16
2023-08-17T12:03:22.216Z,96396.69
2023-08-17T12:04:54.214Z,96399.31
2023-08-17T12:06:25.956Z,96399.72
2023-08-17T12:07:57.630Z,96396.19
2023-08-17T12:09:29.461Z,96402.72
2023-08-17T12:11:01.641Z,96402.50
2023-08-17T12:12:37.661Z,96411.88
2023-08-17T12:14:10.956Z,96409.78
2023-08-17T12:15:42.727Z,96409.03
2023-08-17T12:17:15.697Z,96408.44
2023-08-17T12:18:48.732Z,96412.22
2023-08-17T12:20:21.084Z,96403.94
2023-08-17T12:21:52.808Z,96413.19
2023-08-17T12:23:24.540Z,96407.53
2023-08-17T12:24:56.192Z,96411.94
2023-08-17T12:26:28.763Z,96400.03
2023-08-17T12:28:02.205Z,96400.47
2023-08-17T12:29:33.945Z,96397.16
2023-08-17T12:31:05.624Z,96405.84
2023-08-17T12:32:37.977Z,96392.91
2023-08-17T12:34:09.764Z,96398.81
2023-08-17T12:35:41.493Z,96392.72
2023-08-17T12:37:13.592Z,96394.06
2023-08-17T12:38:46.278Z,96390.59
2023-08-17T12:40:17.902Z,96392.56
2023-08-17T12:41:49.742Z,96381.91
2023-08-17T12:43:22.788Z,96388.75
2023-08-17T12:44:54.396Z,96382.19
2023-08-17T12:46:26.253Z,96383.31
2023-08-17T12:47:57.985Z,96382.22
2023-08-17T12:49:29.659Z,96382.09
2023-08-17T12:51:02.799Z,96387.75
2023-08-17T12:52:35.553Z,96383.00
2023-08-17T12:54:07.245Z,96390.16
2023-08-17T12:55:38.875Z,96379.19
2023-08-17T12:57:13.138Z,96376.59
2023-08-17T12:58:46.400Z,96378.91
2023-08-17T13:00:18.386Z,96381.31
2023-08-17T13:01:50.123Z,96383.00
2023-08-17T13:03:21.925Z,96384.53
2023-08-17T13:04:53.915Z,96383.00
2023-08-17T13:06:29.007Z,96386.66
2023-08-17T13:08:05.740Z,96388.19
2023-08-17T13:09:37.422Z,96387.25
2023-08-17T13:11:09.111Z,96381.31
2023-08-17T13:12:40.770Z,96379.03
2023-08-17T13:14:15.297Z,96382.53
2023-08-17T13:15:47.102Z,96382.41
2023-08-17T13:17:18.738Z,96387.91
2023-08-17T13:18:50.520Z,96389.25
2023-08-17T13:20:23.022Z,96387.88
2023-08-17T13:21:54.903Z,96381.16
2023-08-17T13:23:26.612Z,96379.19
2023-08-17T13:24:58.368Z,96382.69
2023-08-17T13:26:30.347Z,96382.72
2023-08-17T13:28:02.032Z,96374.19
2023-08-17T13:29:36.739Z,96372.06
2023-08-17T13:31:23.834Z,96377.63
2023-08-17T13:32:56.877Z,96371.84
2023-08-17T13:34:28.552Z,96374.59
2023-08-17T13:36:00.322Z,96371.09
2023-08-17T13:37:32.350Z,96372.75
2023-08-17T13:39:04.502Z,96377.94
2023-08-17T13:40:37.439Z,96377.63
2023-08-17T13:42:09.191Z,96372.00
2023-08-17T13:43:41.203Z,96376.56
2023-08-17T13:45:14.274Z,96381.44
2023-08-17T13:46:45.880Z,96378.53
2023-08-17T13:48:17.633Z,96379.38
2023-08-17T13:49:49.302Z,96370.16
2023-08-17T13:51:21.000Z,96369.56
2023-08-17T13:52:52.657Z,96375.19
2023-08-17T13:54:24.452Z,96366.03
2023-08-17T13:55:56.315Z,96368.34
2023-08-17T13:57:27.952Z,96375.34
2023-08-17T13:58:59.739Z,96366.97
2023-08-17T14:00:33.296Z,96373.53
2023-08-17T14:02:05.085Z,96372.00
2023-08-17T14:03:37.681Z,96373.28
2023-08-17T14:05:10.482Z,96373.81
2023-08-17T14:06:42.246Z,96372.75
2023-08-17T14:08:13.988Z,96366.06
2023-08-17T14:09:57.897Z,96365.59
2023-08-17T14:11:37.409Z,96355.56
2023-08-17T14:13:09.104Z,96359.97
2023-08-17T14:14:40.727Z,96354.19
2023-08-17T14:16:13.762Z,96361.19
2023-08-17T14:17:45.527Z,96353.94
2023-08-17T14:19:17.623Z,96363.50
2023-08-17T14:20:49.274Z,96360.13
2023-08-17T14:22:20.979Z,96351.94
2023-08-17T14:23:52.718Z,96354.94
2023-08-17T14:25:24.375Z,96342.31
2023-08-17T14:26:57.835Z,96351.00
2023-08-17T14:28:29.462Z,96349.72
2023-08-17T14:30:02.786Z,96348.06
2023-08-17T14:31:35.774Z,96346.44
2023-08-17T14:33:07.815Z,96348.56
2023-08-17T14:34:39.569Z,96348.84
2023-08-17T14:36:11.198Z,96343.69
2023-08-17T14:37:42.877Z,96348.53
2023-08-17T14:39:14.586Z,96343.84
2023-08-17T14:40:46.973Z,96341.53
2023-08-17T14:42:18.618Z,96337.44
2023-08-17T14:43:50.291Z,96340.50
2023-08-17T14:45:21.983Z,96338.81
2023-08-17T14:46:54.998Z,96336.84
2023-08-17T14:48:26.977Z,96337.13
2023-08-17T14:49:58.769Z,96334.69
2023-08-17T14:51:31.449Z,96335.75
2023-08-17T14:53:03.983Z,96350.81
2023-08-17T14:54:35.729Z,96344.72
2023-08-17T14:56:07.439Z,96346.69
2023-08-17T14:57:39.151Z,96344.09
2023-08-17T14:59:11.153Z,96352.16
2023-08-17T15:00:42.812Z,96347.00
2023-08-17T15:03:52.746Z,96352.09
2023-08-17T15:05:28.884Z,96366.94
2023-08-17T15:07:00.935Z,96356.75
2023-08-17T15:08:33.229Z,96371.66
2023-08-17T15:10:05.529Z,96377.31
2023-08-17T15:11:37.328Z,96380.81
2023-08-17T15:13:11.360Z,96376.91
2023-08-17T15:14:43.324Z,96375.59
2023-08-17T15:16:15.009Z,96382.47
2023-08-17T15:17:48.017Z,96380.06
2023-08-17T15:19:34.494Z,96380.69
2023-08-17T15:21:11.343Z,96387.94
2023-08-17T15:22:43.030Z,96385.97
2023-08-17T15:24:14.648Z,96393.13
2023-08-17T15:25:46.562Z,96388.84
2023-08-17T15:27:18.237Z,96382.78
2023-08-17T15:28:49.934Z,96385.84
2023-08-17T15:30:21.610Z,96383.88
2023-08-17T15:31:53.220Z,96380.34
2023-08-17T15:33:26.225Z,96384.44
2023-08-17T15:34:58.184Z,96387.22
2023-08-17T15:36:29.841Z,96388.28
2023-08-17T15:38:01.476Z,96373.38
2023-08-17T15:39:33.164Z,96380.66
2023-08-17T15:41:04.949Z,96373.97
2023-08-17T15:42:36.630Z,96377.09
2023-08-17T15:44:08.289Z,96375.91
2023-08-17T15:45:41.411Z,96376.13
2023-08-17T15:47:13.195Z,96377.16
2023-08-17T15:48:46.309Z,96369.72
2023-08-17T15:50:19.228Z,96361.75
2023-08-17T15:51:50.880Z,96374.53
2023-08-17T15:53:22.671Z,96370.13
2023-08-17T15:54:54.344Z,96366.31
2023-08-17T15:56:26.034Z,96365.25
2023-08-17T15:57:57.640Z,96362.81
2023-08-17T15:59:29.356Z,96371.63
2023-08-17T16:01:01.006Z,96367.38
2023-08-17T16:02:32.732Z,96365.44
2023-08-17T16:04:05.832Z,96366.22
2023-08-17T16:05:37.539Z,96363.63
2023-08-17T16:07:09.196Z,96361.31
2023-08-17T16:08:49.142Z,96362.25
2023-08-17T16:10:21.560Z,96368.50
2023-08-17T16:11:54.297Z,96370.44
2023-08-17T16:13:25.966Z,96368.00
2023-08-17T16:14:57.874Z,96365.97
2023-08-17T16:16:29.586Z,96374.88
2023-08-17T16:18:01.957Z,96375.31
2023-08-17T16:19:35.149Z,96382.88
2023-08-17T16:21:13.858Z,96378.75
2023-08-17T16:22:46.885Z,96380.38
2023-08-17T16:24:18.525Z,96380.09
2023-08-17T16:25:50.196Z,96395.47
2023-08-17T16:27:21.915Z,96396.97
2023-08-17T16:28:53.551Z,96399.13
2023-08-17T16:30:25.226Z,96407.16
2023-08-17T16:32:00.849Z,96408.47
2023-08-17T16:33:32.586Z,96402.75
2023-08-17T16:35:06.654Z,96404.53
2023-08-17T16:36:38.369Z,96405.59
2023-08-17T16:38:12.217Z,96401.88
2023-08-17T16:39:44.074Z,96404.63
2023-08-17T16:41:15.703Z,96398.41
2023-08-17T16:42:47.850Z,96401.56
2023-08-17T16:44:20.080Z,96400.69
2023-08-17T16:45:52.071Z,96399.38
2023-08-17T16:47:27.575Z,96402.09
2023-08-17T16:48:59.658Z,96399.84
2023-08-17T16:50:34.366Z,96399.41
2023-08-17T16:52:07.005Z,96399.53
2023-08-17T16:53:44.015Z,96392.28
2023-08-17T16:55:18.046Z,96394.97
2023-08-17T16:58:24.817Z,96384.03
2023-08-17T16:59:56.469Z,96378.81
2023-08-17T17:01:28.181Z,96390.91
2023-08-17T17:02:59.896Z,96386.59
2023-08-17T17:04:31.783Z,96391.16
2023-08-17T17:06:04.925Z,96391.41
2023-08-17T17:07:36.674Z,96387.84
2023-08-17T17:09:08.321Z,96393.97
2023-08-17T17:10:39.946Z,96394.28
2023-08-17T17:12:11.859Z,96401.44
2023-08-17T17:13:43.484Z,96397.19
2023-08-17T17:15:15.706Z,96385.84
2023-08-17T17:16:47.956Z,96379.34
2023-08-17T17:18:19.736Z,96393.59
2023-08-17T17:19:51.508Z,96384.94
2023-08-17T17:21:24.741Z,96387.47
2023-08-17T17:22:58.762Z,96388.75
2023-08-17T17:24:32.377Z,96379.41
2023-08-17T17:26:08.665Z,96382.25
2023-08-17T17:27:41.036Z,96387.06
2023-08-17T17:29:12.750Z,96385.63
2023-08-17T17:30:44.815Z,96386.94
2023-08-17T17:32:16.543Z,96389.13
2023-08-17T17:33:48.161Z,96386.19
2023-08-17T17:35:19.950Z,96394.19
2023-08-17T17:36:53.060Z,96404.91
2023-08-17T17:38:24.733Z,96405.38
2023-08-17T17:39:56.462Z,96404.41
2023-08-17T17:41:28.204Z,96407.56
2023-08-17T17:42:59.872Z,96419.59
2023-08-17T17:44:31.510Z,96414.88
2023-08-17T17:46:04.279Z,96421.78
2023-08-17T17:47:36.501Z,96424.97
2023-08-17T17:49:08.166Z,96425.69
2023-08-17T17:50:40.183Z,96432.47
2023-08-17T17:52:13.525Z,96428.19
2023-08-17T17:53:45.208Z,96443.13
2023-08-17T17:55:16.967Z,96432.66
2023-08-17T17:56:49.707Z,96434.03
2023-08-17T17:58:21.376Z,96429.53
2023-08-17T17:59:53.564Z,96422.94
2023-08-17T18:01:25.241Z,96426.69
2023-08-17T18:03:09.168Z,96422.78
2023-08-17T18:04:42.080Z,96438.00
2023-08-17T18:06:13.860Z,96425.91
2023-08-17T18:07:46.937Z,96434.41
2023-08-17T18:09:18.767Z,96435.28
2023-08-17T18:10:50.768Z,96436.81
2023-08-17T18:12:22.473Z,96426.66
2023-08-17T18:13:57.062Z,96418.59
2023-08-17T18:15:28.942Z,96421.84
2023-08-17T18:17:01.022Z,96414.41
2023-08-17T18:18:33.754Z,96413.63